sensor_id;sensor_type;location;lat;lon;timestamp;temperature;humidity
51988;DHT22;38003;52.012;4.346;2022-10-01T00:02:06;14.60;69.60
51988;DHT22;38003;52.012;4.346;2022-10-01T00:04:35;14.60;70.00
51988;DHT22;38003;52.012;4.346;2022-10-01T00:07:04;14.60;69.50
51988;DHT22;38003;52.012;4.346;2022-10-01T00:09:36;14.60;69.90
51988;DHT22;38003;52.012;4.346;2022-10-01T00:12:05;14.50;69.50
51988;DHT22;38003;52.012;4.346;2022-10-01T00:14:33;14.60;70.30
51988;DHT22;38003;52.012;4.346;2022-10-01T00:17:01;14.60;69.40
51988;DHT22;38003;52.012;4.346;2022-10-01T00:19:29;14.60;69.80
51988;DHT22;38003;52.012;4.346;2022-10-01T00:21:56;14.60;69.80
51988;DHT22;38003;52.012;4.346;2022-10-01T00:24:24;14.70;70.20
51988;DHT22;38003;52.012;4.346;2022-10-01T00:26:53;14.60;69.80
51988;DHT22;38003;52.012;4.346;2022-10-01T00:29:21;14.60;70.00
51988;DHT22;38003;52.012;4.346;2022-10-01T00:31:49;14.60;69.90
51988;DHT22;38003;52.012;4.346;2022-10-01T00:34:17;14.50;70.10
51988;DHT22;38003;52.012;4.346;2022-10-01T00:36:44;14.60;70.30
51988;DHT22;38003;52.012;4.346;2022-10-01T00:39:12;14.70;69.80
51988;DHT22;38003;52.012;4.346;2022-10-01T00:41:41;14.80;70.10
51988;DHT22;38003;52.012;4.346;2022-10-01T00:44:30;14.60;71.10
51988;DHT22;38003;52.012;4.346;2022-10-01T00:47:04;14.60;71.20
51988;DHT22;38003;52.012;4.346;2022-10-01T00:49:33;14.50;70.80
51988;DHT22;38003;52.012;4.346;2022-10-01T00:52:05;14.50;70.60
51988;DHT22;38003;52.012;4.346;2022-10-01T00:54:38;14.50;70.90
51988;DHT22;38003;52.012;4.346;2022-10-01T00:57:08;14.40;70.70
51988;DHT22;38003;52.012;4.346;2022-10-01T00:59:37;15.00;71.80
51988;DHT22;38003;52.012;4.346;2022-10-01T01:02:06;14.50;71.00
51988;DHT22;38003;52.012;4.346;2022-10-01T01:04:34;14.50;71.00
51988;DHT22;38003;52.012;4.346;2022-10-01T01:07:02;14.40;71.80
51988;DHT22;38003;52.012;4.346;2022-10-01T01:09:33;14.40;72.00
51988;DHT22;38003;52.012;4.346;2022-10-01T01:12:07;14.50;71.20
51988;DHT22;38003;52.012;4.346;2022-10-01T01:14:43;14.50;72.00
51988;DHT22;38003;52.012;4.346;2022-10-01T01:17:20;14.40;72.10
51988;DHT22;38003;52.012;4.346;2022-10-01T01:20:11;14.50;72.10
51988;DHT22;38003;52.012;4.346;2022-10-01T01:22:45;14.60;71.50
51988;DHT22;38003;52.012;4.346;2022-10-01T01:25:18;14.60;70.70
51988;DHT22;38003;52.012;4.346;2022-10-01T01:27:57;14.70;70.50
51988;DHT22;38003;52.012;4.346;2022-10-01T01:30:26;14.70;72.80
51988;DHT22;38003;52.012;4.346;2022-10-01T01:32:57;14.60;71.00
51988;DHT22;38003;52.012;4.346;2022-10-01T01:35:32;14.80;71.10
51988;DHT22;38003;52.012;4.346;2022-10-01T01:38:06;14.80;70.50
51988;DHT22;38003;52.012;4.346;2022-10-01T01:40:36;14.80;71.80
51988;DHT22;38003;52.012;4.346;2022-10-01T01:43:10;14.80;71.20
51988;DHT22;38003;52.012;4.346;2022-10-01T01:45:41;14.80;71.60
51988;DHT22;38003;52.012;4.346;2022-10-01T01:48:10;14.80;71.50
51988;DHT22;38003;52.012;4.346;2022-10-01T01:50:42;14.80;71.40
51988;DHT22;38003;52.012;4.346;2022-10-01T01:53:12;14.70;71.40
51988;DHT22;38003;52.012;4.346;2022-10-01T01:55:41;14.80;72.30
51988;DHT22;38003;52.012;4.346;2022-10-01T01:58:11;14.90;71.20
51988;DHT22;38003;52.012;4.346;2022-10-01T02:00:39;14.80;72.50
51988;DHT22;38003;52.012;4.346;2022-10-01T02:03:07;14.80;71.80
51988;DHT22;38003;52.012;4.346;2022-10-01T02:05:41;14.90;71.60
51988;DHT22;38003;52.012;4.346;2022-10-01T02:08:24;15.00;71.10
51988;DHT22;38003;52.012;4.346;2022-10-01T02:11:03;14.90;71.00
51988;DHT22;38003;52.012;4.346;2022-10-01T02:13:45;14.90;72.80
51988;DHT22;38003;52.012;4.346;2022-10-01T02:16:21;15.00;71.80
51988;DHT22;38003;52.012;4.346;2022-10-01T02:18:58;15.00;71.80
51988;DHT22;38003;52.012;4.346;2022-10-01T02:21:30;15.10;71.50
51988;DHT22;38003;52.012;4.346;2022-10-01T02:24:04;15.20;71.30
51988;DHT22;38003;52.012;4.346;2022-10-01T02:26:34;15.10;70.90
51988;DHT22;38003;52.012;4.346;2022-10-01T02:29:06;15.20;71.20
51988;DHT22;38003;52.012;4.346;2022-10-01T02:31:34;15.20;71.60
51988;DHT22;38003;52.012;4.346;2022-10-01T02:34:03;15.30;71.20
51988;DHT22;38003;52.012;4.346;2022-10-01T02:36:38;15.10;71.80
51988;DHT22;38003;52.012;4.346;2022-10-01T02:39:08;15.20;71.40
51988;DHT22;38003;52.012;4.346;2022-10-01T02:41:37;15.20;71.60
51988;DHT22;38003;52.012;4.346;2022-10-01T02:44:09;15.30;71.20
51988;DHT22;38003;52.012;4.346;2022-10-01T02:46:42;15.30;71.80
51988;DHT22;38003;52.012;4.346;2022-10-01T02:49:11;15.20;71.60
51988;DHT22;38003;52.012;4.346;2022-10-01T02:51:46;15.30;71.60
51988;DHT22;38003;52.012;4.346;2022-10-01T02:54:19;15.40;71.30
51988;DHT22;38003;52.012;4.346;2022-10-01T02:56:49;15.40;71.00
51988;DHT22;38003;52.012;4.346;2022-10-01T02:59:36;15.50;71.10
51988;DHT22;38003;52.012;4.346;2022-10-01T03:02:04;15.40;71.00
51988;DHT22;38003;52.012;4.346;2022-10-01T03:04:32;15.50;70.90
51988;DHT22;38003;52.012;4.346;2022-10-01T03:07:00;15.50;71.20
51988;DHT22;38003;52.012;4.346;2022-10-01T03:09:30;15.60;70.60
51988;DHT22;38003;52.012;4.346;2022-10-01T03:11:58;15.50;71.40
51988;DHT22;38003;52.012;4.346;2022-10-01T03:14:26;15.60;70.90
51988;DHT22;38003;52.012;4.346;2022-10-01T03:16:56;15.60;70.50
51988;DHT22;38003;52.012;4.346;2022-10-01T03:19:23;15.60;71.50
51988;DHT22;38003;52.012;4.346;2022-10-01T03:21:51;15.60;71.10
51988;DHT22;38003;52.012;4.346;2022-10-01T03:24:21;15.70;70.50
51988;DHT22;38003;52.012;4.346;2022-10-01T03:26:49;15.80;70.30
51988;DHT22;38003;52.012;4.346;2022-10-01T03:29:17;15.80;70.40
51988;DHT22;38003;52.012;4.346;2022-10-01T03:31:45;15.80;70.90
51988;DHT22;38003;52.012;4.346;2022-10-01T03:34:14;15.70;71.60
51988;DHT22;38003;52.012;4.346;2022-10-01T03:36:42;15.80;70.80
51988;DHT22;38003;52.012;4.346;2022-10-01T03:39:10;15.80;70.90
51988;DHT22;38003;52.012;4.346;2022-10-01T03:41:38;15.90;70.50
51988;DHT22;38003;52.012;4.346;2022-10-01T03:44:06;15.90;70.30
51988;DHT22;38003;52.012;4.346;2022-10-01T03:46:33;15.90;71.10
51988;DHT22;38003;52.012;4.346;2022-10-01T03:49:01;16.00;70.40
51988;DHT22;38003;52.012;4.346;2022-10-01T03:51:31;16.00;70.50
51988;DHT22;38003;52.012;4.346;2022-10-01T03:53:59;16.00;70.70
51988;DHT22;38003;52.012;4.346;2022-10-01T03:56:27;16.00;70.20
51988;DHT22;38003;52.012;4.346;2022-10-01T03:58:55;16.00;70.40
51988;DHT22;38003;52.012;4.346;2022-10-01T04:01:22;16.10;70.60
51988;DHT22;38003;52.012;4.346;2022-10-01T04:03:52;16.10;70.50
51988;DHT22;38003;52.012;4.346;2022-10-01T04:06:19;16.10;70.20
51988;DHT22;38003;52.012;4.346;2022-10-01T04:08:49;16.20;70.20
51988;DHT22;38003;52.012;4.346;2022-10-01T04:11:16;16.20;70.40
51988;DHT22;38003;52.012;4.346;2022-10-01T04:13:44;16.20;70.70
51988;DHT22;38003;52.012;4.346;2022-10-01T04:16:12;16.20;70.10
51988;DHT22;38003;52.012;4.346;2022-10-01T04:18:41;16.30;69.90
51988;DHT22;38003;52.012;4.346;2022-10-01T04:21:09;16.20;70.60
51988;DHT22;38003;52.012;4.346;2022-10-01T04:23:38;16.30;69.90
51988;DHT22;38003;52.012;4.346;2022-10-01T04:26:07;16.30;71.20
51988;DHT22;38003;52.012;4.346;2022-10-01T04:28:35;16.30;70.70
51988;DHT22;38003;52.012;4.346;2022-10-01T04:31:03;16.40;69.90
51988;DHT22;38003;52.012;4.346;2022-10-01T04:33:49;16.40;69.70
51988;DHT22;38003;52.012;4.346;2022-10-01T04:36:17;16.50;70.10
51988;DHT22;38003;52.012;4.346;2022-10-01T04:38:45;16.50;69.90
51988;DHT22;38003;52.012;4.346;2022-10-01T04:41:14;16.50;69.70
51988;DHT22;38003;52.012;4.346;2022-10-01T04:43:42;16.60;69.60
51988;DHT22;38003;52.012;4.346;2022-10-01T04:46:10;16.60;69.50
51988;DHT22;38003;52.012;4.346;2022-10-01T04:48:38;16.60;69.50
51988;DHT22;38003;52.012;4.346;2022-10-01T04:51:06;16.70;69.40
51988;DHT22;38003;52.012;4.346;2022-10-01T04:53:33;16.70;69.40
51988;DHT22;38003;52.012;4.346;2022-10-01T04:56:01;16.70;69.30
51988;DHT22;38003;52.012;4.346;2022-10-01T04:58:30;16.70;69.30
51988;DHT22;38003;52.012;4.346;2022-10-01T05:00:58;16.70;69.30
51988;DHT22;38003;52.012;4.346;2022-10-01T05:03:28;16.70;69.10
51988;DHT22;38003;52.012;4.346;2022-10-01T05:05:55;16.70;69.20
51988;DHT22;38003;52.012;4.346;2022-10-01T05:08:23;16.70;69.10
51988;DHT22;38003;52.012;4.346;2022-10-01T05:10:51;16.70;69.10
51988;DHT22;38003;52.012;4.346;2022-10-01T05:13:19;16.60;69.00
51988;DHT22;38003;52.012;4.346;2022-10-01T05:15:49;16.70;69.20
51988;DHT22;38003;52.012;4.346;2022-10-01T05:18:19;16.60;69.00
51988;DHT22;38003;52.012;4.346;2022-10-01T05:20:46;16.60;69.20
51988;DHT22;38003;52.012;4.346;2022-10-01T05:23:14;16.60;69.30
51988;DHT22;38003;52.012;4.346;2022-10-01T05:25:42;16.60;69.20
51988;DHT22;38003;52.012;4.346;2022-10-01T05:28:12;16.40;69.10
51988;DHT22;38003;52.012;4.346;2022-10-01T05:30:46;16.50;69.20
51988;DHT22;38003;52.012;4.346;2022-10-01T05:33:15;16.50;69.00
51988;DHT22;38003;52.012;4.346;2022-10-01T05:35:43;16.60;68.90
51988;DHT22;38003;52.012;4.346;2022-10-01T05:38:11;16.60;68.90
51988;DHT22;38003;52.012;4.346;2022-10-01T05:40:39;16.60;68.90
51988;DHT22;38003;52.012;4.346;2022-10-01T05:43:11;16.70;68.80
51988;DHT22;38003;52.012;4.346;2022-10-01T05:45:39;16.60;68.90
51988;DHT22;38003;52.012;4.346;2022-10-01T05:48:08;16.60;68.80
51988;DHT22;38003;52.012;4.346;2022-10-01T05:50:38;16.70;68.90
51988;DHT22;38003;52.012;4.346;2022-10-01T05:53:07;16.60;68.90
51988;DHT22;38003;52.012;4.346;2022-10-01T05:55:36;16.70;68.90
51988;DHT22;38003;52.012;4.346;2022-10-01T05:58:06;16.70;68.70
51988;DHT22;38003;52.012;4.346;2022-10-01T06:00:36;16.70;69.00
51988;DHT22;38003;52.012;4.346;2022-10-01T06:03:05;16.60;68.90
51988;DHT22;38003;52.012;4.346;2022-10-01T06:05:34;16.60;68.80
51988;DHT22;38003;52.012;4.346;2022-10-01T06:08:05;16.60;69.10
51988;DHT22;38003;52.012;4.346;2022-10-01T06:10:35;16.60;68.90
51988;DHT22;38003;52.012;4.346;2022-10-01T06:13:04;16.60;68.90
51988;DHT22;38003;52.012;4.346;2022-10-01T06:15:33;16.60;69.00
51988;DHT22;38003;52.012;4.346;2022-10-01T06:18:03;16.70;69.00
51988;DHT22;38003;52.012;4.346;2022-10-01T06:20:31;16.70;68.90
51988;DHT22;38003;52.012;4.346;2022-10-01T06:22:59;16.70;69.10
51988;DHT22;38003;52.012;4.346;2022-10-01T06:25:28;16.80;69.00
51988;DHT22;38003;52.012;4.346;2022-10-01T06:27:58;16.80;69.10
51988;DHT22;38003;52.012;4.346;2022-10-01T06:30:27;16.80;68.90
51988;DHT22;38003;52.012;4.346;2022-10-01T06:32:58;16.80;68.80
51988;DHT22;38003;52.012;4.346;2022-10-01T06:35:27;16.80;69.30
51988;DHT22;38003;52.012;4.346;2022-10-01T06:37:55;16.80;69.20
51988;DHT22;38003;52.012;4.346;2022-10-01T06:40:23;16.70;69.80
51988;DHT22;38003;52.012;4.346;2022-10-01T06:42:53;16.70;70.00
51988;DHT22;38003;52.012;4.346;2022-10-01T06:45:24;16.80;69.90
51988;DHT22;38003;52.012;4.346;2022-10-01T06:47:52;16.80;70.00
51988;DHT22;38003;52.012;4.346;2022-10-01T06:50:21;17.00;69.70
51988;DHT22;38003;52.012;4.346;2022-10-01T06:52:49;17.00;69.70
51988;DHT22;38003;52.012;4.346;2022-10-01T06:55:16;17.10;69.60
51988;DHT22;38003;52.012;4.346;2022-10-01T06:57:45;17.10;70.00
51988;DHT22;38003;52.012;4.346;2022-10-01T07:00:14;17.10;69.60
51988;DHT22;38003;52.012;4.346;2022-10-01T07:02:42;17.30;69.20
51988;DHT22;38003;52.012;4.346;2022-10-01T07:05:10;17.30;69.30
51988;DHT22;38003;52.012;4.346;2022-10-01T07:07:38;17.20;69.50
51988;DHT22;38003;52.012;4.346;2022-10-01T07:10:08;17.30;69.60
51988;DHT22;38003;52.012;4.346;2022-10-01T07:12:36;17.40;69.50
51988;DHT22;38003;52.012;4.346;2022-10-01T07:15:05;17.50;69.20
51988;DHT22;38003;52.012;4.346;2022-10-01T07:17:42;17.50;69.20
51988;DHT22;38003;52.012;4.346;2022-10-01T07:20:10;17.50;69.50
51988;DHT22;38003;52.012;4.346;2022-10-01T07:22:40;17.50;69.40
51988;DHT22;38003;52.012;4.346;2022-10-01T07:25:08;17.50;69.00
51988;DHT22;38003;52.012;4.346;2022-10-01T07:27:37;17.60;69.00
51988;DHT22;38003;52.012;4.346;2022-10-01T07:30:06;17.60;69.00
51988;DHT22;38003;52.012;4.346;2022-10-01T07:32:35;17.60;69.20
51988;DHT22;38003;52.012;4.346;2022-10-01T07:35:04;17.50;68.90
51988;DHT22;38003;52.012;4.346;2022-10-01T07:37:32;17.40;68.80
51988;DHT22;38003;52.012;4.346;2022-10-01T07:40:00;17.60;68.50
51988;DHT22;38003;52.012;4.346;2022-10-01T07:42:32;17.50;68.40
51988;DHT22;38003;52.012;4.346;2022-10-01T07:45:00;17.50;68.50
51988;DHT22;38003;52.012;4.346;2022-10-01T07:47:32;17.70;68.30
51988;DHT22;38003;52.012;4.346;2022-10-01T07:50:01;17.60;68.00
51988;DHT22;38003;52.012;4.346;2022-10-01T07:52:29;17.60;67.90
51988;DHT22;38003;52.012;4.346;2022-10-01T07:54:57;17.50;67.90
51988;DHT22;38003;52.012;4.346;2022-10-01T07:57:24;17.50;67.80
51988;DHT22;38003;52.012;4.346;2022-10-01T07:59:52;17.60;67.50
51988;DHT22;38003;52.012;4.346;2022-10-01T08:02:21;17.70;67.40
51988;DHT22;38003;52.012;4.346;2022-10-01T08:04:49;17.70;67.30
51988;DHT22;38003;52.012;4.346;2022-10-01T08:07:36;17.70;67.20
51988;DHT22;38003;52.012;4.346;2022-10-01T08:10:05;17.60;67.20
51988;DHT22;38003;52.012;4.346;2022-10-01T08:12:33;17.70;66.90
51988;DHT22;38003;52.012;4.346;2022-10-01T08:15:01;17.70;66.80
51988;DHT22;38003;52.012;4.346;2022-10-01T08:17:29;17.70;66.90
51988;DHT22;38003;52.012;4.346;2022-10-01T08:19:57;17.80;66.80
51988;DHT22;38003;52.012;4.346;2022-10-01T08:22:24;17.70;66.90
51988;DHT22;38003;52.012;4.346;2022-10-01T08:24:53;17.70;66.90
51988;DHT22;38003;52.012;4.346;2022-10-01T08:27:22;17.70;66.80
51988;DHT22;38003;52.012;4.346;2022-10-01T08:29:50;17.70;67.00
51988;DHT22;38003;52.012;4.346;2022-10-01T08:32:19;17.70;67.00
51988;DHT22;38003;52.012;4.346;2022-10-01T08:34:47;17.70;66.90
51988;DHT22;38003;52.012;4.346;2022-10-01T08:37:27;17.80;66.70
51988;DHT22;38003;52.012;4.346;2022-10-01T08:39:57;17.80;66.70
51988;DHT22;38003;52.012;4.346;2022-10-01T08:42:45;17.90;66.60
51988;DHT22;38003;52.012;4.346;2022-10-01T08:45:25;17.80;66.40
51988;DHT22;38003;52.012;4.346;2022-10-01T08:47:59;17.70;66.30
51988;DHT22;38003;52.012;4.346;2022-10-01T08:50:40;17.70;66.40
51988;DHT22;38003;52.012;4.346;2022-10-01T08:53:14;17.90;66.30
51988;DHT22;38003;52.012;4.346;2022-10-01T08:55:46;17.80;66.30
51988;DHT22;38003;52.012;4.346;2022-10-01T08:58:20;17.70;66.00
51988;DHT22;38003;52.012;4.346;2022-10-01T09:00:50;17.80;66.10
51988;DHT22;38003;52.012;4.346;2022-10-01T09:03:18;17.90;66.00
51988;DHT22;38003;52.012;4.346;2022-10-01T09:06:02;17.90;65.90
51988;DHT22;38003;52.012;4.346;2022-10-01T09:08:45;18.00;65.80
51988;DHT22;38003;52.012;4.346;2022-10-01T09:11:28;17.90;65.50
51988;DHT22;38003;52.012;4.346;2022-10-01T09:14:13;17.90;65.30
51988;DHT22;38003;52.012;4.346;2022-10-01T09:16:50;17.80;65.90
51988;DHT22;38003;52.012;4.346;2022-10-01T09:19:36;17.80;65.10
51988;DHT22;38003;52.012;4.346;2022-10-01T09:22:13;17.90;65.40
51988;DHT22;38003;52.012;4.346;2022-10-01T09:24:51;17.80;65.30
51988;DHT22;38003;52.012;4.346;2022-10-01T09:27:25;17.80;65.30
51988;DHT22;38003;52.012;4.346;2022-10-01T09:29:56;17.80;65.20
51988;DHT22;38003;52.012;4.346;2022-10-01T09:32:30;17.90;65.40
51988;DHT22;38003;52.012;4.346;2022-10-01T09:35:06;17.90;65.40
51988;DHT22;38003;52.012;4.346;2022-10-01T09:37:42;18.00;64.80
51988;DHT22;38003;52.012;4.346;2022-10-01T09:40:16;17.90;64.90
51988;DHT22;38003;52.012;4.346;2022-10-01T09:42:48;17.90;65.20
51988;DHT22;38003;52.012;4.346;2022-10-01T09:45:17;17.80;64.50
51988;DHT22;38003;52.012;4.346;2022-10-01T09:47:49;17.70;64.90
51988;DHT22;38003;52.012;4.346;2022-10-01T09:50:21;17.90;65.00
51988;DHT22;38003;52.012;4.346;2022-10-01T09:52:51;18.00;64.80
51988;DHT22;38003;52.012;4.346;2022-10-01T09:55:29;18.00;64.30
51988;DHT22;38003;52.012;4.346;2022-10-01T09:58:03;18.00;64.40
51988;DHT22;38003;52.012;4.346;2022-10-01T10:00:31;18.00;64.20
51988;DHT22;38003;52.012;4.346;2022-10-01T10:02:59;18.20;64.00
51988;DHT22;38003;52.012;4.346;2022-10-01T10:05:29;18.30;63.70
51988;DHT22;38003;52.012;4.346;2022-10-01T10:08:11;18.30;64.00
51988;DHT22;38003;52.012;4.346;2022-10-01T10:10:48;18.50;62.70
51988;DHT22;38003;52.012;4.346;2022-10-01T10:13:22;18.60;63.00
51988;DHT22;38003;52.012;4.346;2022-10-01T10:15:54;18.60;62.90
51988;DHT22;38003;52.012;4.346;2022-10-01T10:18:28;18.40;62.30
51988;DHT22;38003;52.012;4.346;2022-10-01T10:20:58;18.40;63.40
51988;DHT22;38003;52.012;4.346;2022-10-01T10:23:29;18.30;62.70
51988;DHT22;38003;52.012;4.346;2022-10-01T10:25:58;18.30;63.20
51988;DHT22;38003;52.012;4.346;2022-10-01T10:28:39;18.30;63.40
51988;DHT22;38003;52.012;4.346;2022-10-01T10:31:13;18.40;63.50
51988;DHT22;38003;52.012;4.346;2022-10-01T10:33:46;18.50;63.20
51988;DHT22;38003;52.012;4.346;2022-10-01T10:36:15;18.70;63.00
51988;DHT22;38003;52.012;4.346;2022-10-01T10:38:45;18.90;63.20
51988;DHT22;38003;52.012;4.346;2022-10-01T10:41:16;19.00;62.70
51988;DHT22;38003;52.012;4.346;2022-10-01T10:43:47;18.80;62.00
51988;DHT22;38003;52.012;4.346;2022-10-01T10:46:24;18.70;62.60
51988;DHT22;38003;52.012;4.346;2022-10-01T10:49:01;18.80;62.60
51988;DHT22;38003;52.012;4.346;2022-10-01T10:51:47;18.70;62.90
51988;DHT22;38003;52.012;4.346;2022-10-01T10:54:22;18.80;61.90
51988;DHT22;38003;52.012;4.346;2022-10-01T10:56:56;18.80;62.50
51988;DHT22;38003;52.012;4.346;2022-10-01T10:59:28;18.60;62.20
51988;DHT22;38003;52.012;4.346;2022-10-01T11:01:58;18.60;62.60
51988;DHT22;38003;52.012;4.346;2022-10-01T11:04:36;18.50;62.70
51988;DHT22;38003;52.012;4.346;2022-10-01T11:07:05;18.30;62.70
51988;DHT22;38003;52.012;4.346;2022-10-01T11:12:31;18.60;63.30
51988;DHT22;38003;52.012;4.346;2022-10-01T11:15:17;18.60;62.60
51988;DHT22;38003;52.012;4.346;2022-10-01T11:21:20;18.60;61.80
51988;DHT22;38003;52.012;4.346;2022-10-01T11:24:14;18.70;62.00
51988;DHT22;38003;52.012;4.346;2022-10-01T11:26:52;18.70;61.70
51988;DHT22;38003;52.012;4.346;2022-10-01T11:29:32;18.70;61.80
51988;DHT22;38003;52.012;4.346;2022-10-01T11:32:14;18.70;61.90
51988;DHT22;38003;52.012;4.346;2022-10-01T11:35:05;18.80;61.60
51988;DHT22;38003;52.012;4.346;2022-10-01T11:37:45;18.70;62.10
51988;DHT22;38003;52.012;4.346;2022-10-01T11:40:21;18.60;61.90
51988;DHT22;38003;52.012;4.346;2022-10-01T11:42:57;18.60;61.60
51988;DHT22;38003;52.012;4.346;2022-10-01T11:45:33;18.50;62.30
51988;DHT22;38003;52.012;4.346;2022-10-01T11:48:05;18.60;61.80
51988;DHT22;38003;52.012;4.346;2022-10-01T11:50:35;18.60;61.90
51988;DHT22;38003;52.012;4.346;2022-10-01T11:53:10;18.70;61.90
51988;DHT22;38003;52.012;4.346;2022-10-01T11:55:41;18.80;61.80
51988;DHT22;38003;52.012;4.346;2022-10-01T11:58:31;18.60;61.30
51988;DHT22;38003;52.012;4.346;2022-10-01T12:01:30;18.70;61.30
51988;DHT22;38003;52.012;4.346;2022-10-01T12:04:06;18.80;61.70
51988;DHT22;38003;52.012;4.346;2022-10-01T12:06:41;18.90;61.50
51988;DHT22;38003;52.012;4.346;2022-10-01T12:09:15;19.00;61.60
51988;DHT22;38003;52.012;4.346;2022-10-01T12:11:49;19.00;61.30
51988;DHT22;38003;52.012;4.346;2022-10-01T12:14:21;19.00;60.80
51988;DHT22;38003;52.012;4.346;2022-10-01T12:16:55;19.00;61.10
51988;DHT22;38003;52.012;4.346;2022-10-01T12:19:28;19.10;61.20
51988;DHT22;38003;52.012;4.346;2022-10-01T12:22:01;19.10;61.30
51988;DHT22;38003;52.012;4.346;2022-10-01T12:24:34;19.10;60.80
51988;DHT22;38003;52.012;4.346;2022-10-01T12:27:13;19.00;60.80
51988;DHT22;38003;52.012;4.346;2022-10-01T12:29:49;19.00;60.90
51988;DHT22;38003;52.012;4.346;2022-10-01T12:32:27;18.90;60.90
51988;DHT22;38003;52.012;4.346;2022-10-01T12:35:06;18.80;60.20
51988;DHT22;38003;52.012;4.346;2022-10-01T12:37:46;18.80;60.80
51988;DHT22;38003;52.012;4.346;2022-10-01T12:40:23;19.00;60.70
51988;DHT22;38003;52.012;4.346;2022-10-01T12:43:09;19.00;60.70
51988;DHT22;38003;52.012;4.346;2022-10-01T12:45:46;18.90;60.50
51988;DHT22;38003;52.012;4.346;2022-10-01T12:48:22;19.10;61.00
51988;DHT22;38003;52.012;4.346;2022-10-01T12:53:45;19.30;60.60
51988;DHT22;38003;52.012;4.346;2022-10-01T12:56:19;19.40;60.60
51988;DHT22;38003;52.012;4.346;2022-10-01T12:59:20;19.50;60.40
51988;DHT22;38003;52.012;4.346;2022-10-01T13:02:00;19.50;60.20
51988;DHT22;38003;52.012;4.346;2022-10-01T13:07:39;19.50;59.60
51988;DHT22;38003;52.012;4.346;2022-10-01T13:10:19;19.30;59.80
51988;DHT22;38003;52.012;4.346;2022-10-01T13:12:59;19.10;60.40
51988;DHT22;38003;52.012;4.346;2022-10-01T13:15:31;19.00;60.60
51988;DHT22;38003;52.012;4.346;2022-10-01T13:18:08;19.00;60.60
51988;DHT22;38003;52.012;4.346;2022-10-01T13:20:41;19.20;60.30
51988;DHT22;38003;52.012;4.346;2022-10-01T13:23:19;19.10;60.40
51988;DHT22;38003;52.012;4.346;2022-10-01T13:25:57;19.10;60.90
51988;DHT22;38003;52.012;4.346;2022-10-01T13:28:32;19.00;60.50
51988;DHT22;38003;52.012;4.346;2022-10-01T13:31:11;19.00;61.60
51988;DHT22;38003;52.012;4.346;2022-10-01T13:33:40;19.10;60.80
51988;DHT22;38003;52.012;4.346;2022-10-01T13:36:08;19.00;60.20
51988;DHT22;38003;52.012;4.346;2022-10-01T13:38:41;18.90;60.50
51988;DHT22;38003;52.012;4.346;2022-10-01T13:41:18;18.90;60.70
51988;DHT22;38003;52.012;4.346;2022-10-01T13:43:49;19.00;60.80
51988;DHT22;38003;52.012;4.346;2022-10-01T13:46:24;19.10;61.00
51988;DHT22;38003;52.012;4.346;2022-10-01T13:48:53;19.00;61.00
51988;DHT22;38003;52.012;4.346;2022-10-01T13:51:33;19.10;60.50
51988;DHT22;38003;52.012;4.346;2022-10-01T13:54:10;19.20;60.80
51988;DHT22;38003;52.012;4.346;2022-10-01T13:56:44;19.20;60.60
51988;DHT22;38003;52.012;4.346;2022-10-01T13:59:29;19.20;60.60
51988;DHT22;38003;52.012;4.346;2022-10-01T14:01:58;19.10;60.70
51988;DHT22;38003;52.012;4.346;2022-10-01T14:04:33;19.00;60.80
51988;DHT22;38003;52.012;4.346;2022-10-01T14:07:09;18.90;60.60
51988;DHT22;38003;52.012;4.346;2022-10-01T14:09:44;18.90;61.20
51988;DHT22;38003;52.012;4.346;2022-10-01T14:12:16;19.00;61.20
51988;DHT22;38003;52.012;4.346;2022-10-01T14:15:16;19.20;61.10
51988;DHT22;38003;52.012;4.346;2022-10-01T14:18:05;19.20;60.90
51988;DHT22;38003;52.012;4.346;2022-10-01T14:20:43;19.10;60.70
51988;DHT22;38003;52.012;4.346;2022-10-01T14:23:15;18.90;60.60
51988;DHT22;38003;52.012;4.346;2022-10-01T14:25:50;19.00;60.60
51988;DHT22;38003;52.012;4.346;2022-10-01T14:28:37;18.90;60.10
51988;DHT22;38003;52.012;4.346;2022-10-01T14:31:15;18.90;60.10
51988;DHT22;38003;52.012;4.346;2022-10-01T14:34:15;18.80;60.40
51988;DHT22;38003;52.012;4.346;2022-10-01T14:36:47;19.00;60.70
51988;DHT22;38003;52.012;4.346;2022-10-01T14:39:18;19.10;60.70
51988;DHT22;38003;52.012;4.346;2022-10-01T14:41:48;19.10;60.70
51988;DHT22;38003;52.012;4.346;2022-10-01T14:44:23;19.20;60.40
51988;DHT22;38003;52.012;4.346;2022-10-01T14:46:53;19.20;58.50
51988;DHT22;38003;52.012;4.346;2022-10-01T14:49:24;19.00;60.00
51988;DHT22;38003;52.012;4.346;2022-10-01T14:51:57;19.10;60.00
51988;DHT22;38003;52.012;4.346;2022-10-01T14:54:26;19.20;60.20
51988;DHT22;38003;52.012;4.346;2022-10-01T14:56:56;19.20;60.40
51988;DHT22;38003;52.012;4.346;2022-10-01T14:59:29;19.20;60.10
51988;DHT22;38003;52.012;4.346;2022-10-01T15:02:01;19.30;60.10
51988;DHT22;38003;52.012;4.346;2022-10-01T15:04:29;19.30;60.00
51988;DHT22;38003;52.012;4.346;2022-10-01T15:07:08;19.20;59.70
51988;DHT22;38003;52.012;4.346;2022-10-01T15:09:38;19.20;59.90
51988;DHT22;38003;52.012;4.346;2022-10-01T15:12:07;19.10;60.30
51988;DHT22;38003;52.012;4.346;2022-10-01T15:14:35;19.20;60.20
51988;DHT22;38003;52.012;4.346;2022-10-01T15:17:04;19.10;60.10
51988;DHT22;38003;52.012;4.346;2022-10-01T15:19:39;19.20;60.10
51988;DHT22;38003;52.012;4.346;2022-10-01T15:22:10;19.10;60.00
51988;DHT22;38003;52.012;4.346;2022-10-01T15:24:41;19.20;60.30
51988;DHT22;38003;52.012;4.346;2022-10-01T15:27:12;19.30;60.50
51988;DHT22;38003;52.012;4.346;2022-10-01T15:29:41;19.20;60.50
51988;DHT22;38003;52.012;4.346;2022-10-01T15:32:13;19.20;60.60
51988;DHT22;38003;52.012;4.346;2022-10-01T15:34:46;19.10;60.20
51988;DHT22;38003;52.012;4.346;2022-10-01T15:37:17;18.90;59.50
51988;DHT22;38003;52.012;4.346;2022-10-01T15:39:48;19.10;60.40
51988;DHT22;38003;52.012;4.346;2022-10-01T15:42:23;19.20;60.10
51988;DHT22;38003;52.012;4.346;2022-10-01T15:45:22;19.30;60.00
51988;DHT22;38003;52.012;4.346;2022-10-01T15:47:51;19.40;59.90
51988;DHT22;38003;52.012;4.346;2022-10-01T15:50:23;19.20;59.70
51988;DHT22;38003;52.012;4.346;2022-10-01T15:52:58;19.10;60.90
51988;DHT22;38003;52.012;4.346;2022-10-01T15:55:41;19.10;60.50
51988;DHT22;38003;52.012;4.346;2022-10-01T15:58:13;19.10;60.60
51988;DHT22;38003;52.012;4.346;2022-10-01T16:00:53;19.00;60.40
51988;DHT22;38003;52.012;4.346;2022-10-01T16:03:25;19.10;60.50
51988;DHT22;38003;52.012;4.346;2022-10-01T16:05:55;19.10;60.80
51988;DHT22;38003;52.012;4.346;2022-10-01T16:08:27;19.10;60.60
51988;DHT22;38003;52.012;4.346;2022-10-01T16:11:19;19.10;60.50
51988;DHT22;38003;52.012;4.346;2022-10-01T16:13:50;19.10;59.30
51988;DHT22;38003;52.012;4.346;2022-10-01T16:16:22;19.10;60.00